Salinas, CA

9:08 AM PDT on August 27, 2016 (GMT -0700)
Los Olivos | | Change Station

Elev 39 ft 36.66 °N, 121.67 °W | Updated 1 minute ago

Overcast
Overcast
61.7 °F
Feels Like 61.7 °F
N
3.6
Wind Variable Wind from SSW
Gusts 4.9 mph

Today
High -- | Low -- °F
--% Chance of Precip.
Yesterday
High -- | Low -- °F
Precip. -- in
Pressure 30.04 in
Visibility 10.0 miles
Clouds Overcast 1600 ft
Dew Point 48 °F
Humidity 60%
Rainfall 0.00 in
Snow Depth Not available.
6:34 AM 7:41 PM
Waning Crescent, 23% visible
METAR KSNS 271553Z 19003KT 10SM OVC016 17/12 A3001 RMK AO2 SLP173 T01670117
Pressure 30.04 in
Visibility 10.0 miles
Clouds Overcast 1600 ft
Dew Point 48 °F
Humidity 60%
Rainfall 0.00 in
Snow Depth Not available.
6:34 AM 7:41 PM
Waning Crescent, 23% visible
METAR KSNS 271553Z 19003KT 10SM OVC016 17/12 A3001 RMK AO2 SLP173 T01670117

10-Day Weather Forecast

Almanac

Astronomy

Aug. 27, 2016 Rise Set
Actual Time
Civil Twilight
Nautical Twilight
Astronomical Twilight
Moon
Length of Visible Light
Length of Day
Tomorrow will be .
, % of the Moon is Illuminated

Today's Extremes

State Highs State Lows

Community

WunderPhotos

Upload Photos

1,935,373 photos uploaded!

WunderBlog® & News

Nearby

Air Quality

  Air Quality AQ Index Pollutant
Not available.

Snow Depth

Station Depth Elevation

Earthquake Activity

City Distance Mag. Time & Date
Minimum magnitude displayed is 2.5.

Coastal Water Temperatures

Place Temperature

Stations

Nearby Weather Stations

Station Location Temp. Windchill Dew Point Humidity Wind Precip. Elev Updated Type
                   

Watches & Warnings

There are currently no watches in effect.